createdAt,value
2018-02-16T00:02:04.602Z,74.60
2018-02-16T00:04:31.445Z,74.90
2018-02-16T00:06:58.454Z,74.60
2018-02-16T00:09:25.318Z,74.90
2018-02-16T00:11:52.310Z,75.10
2018-02-16T00:14:20.137Z,75.80
2018-02-16T00:16:47.001Z,75.80
2018-02-16T00:19:13.973Z,76.20
2018-02-16T00:21:40.958Z,76.20
2018-02-16T00:24:08.043Z,75.40
2018-02-16T00:26:35.654Z,74.80
2018-02-16T00:29:02.673Z,74.60
2018-02-16T00:31:29.576Z,73.90
2018-02-16T00:33:56.633Z,74.40
2018-02-16T00:36:23.510Z,75.30
2018-02-16T00:38:51.310Z,74.30
2018-02-16T00:41:18.289Z,74.20
2018-02-16T00:43:45.416Z,74.80
2018-02-16T00:46:13.030Z,75.80
2018-02-16T00:48:40.596Z,76.30
2018-02-16T00:51:08.204Z,76.10
2018-02-16T00:53:36.347Z,76.10
2018-02-16T00:56:03.241Z,75.90
2018-02-16T00:58:30.080Z,76.50
2018-02-16T01:00:57.242Z,76.60
2018-02-16T01:03:24.199Z,76.30
2018-02-16T01:05:51.895Z,76.60
2018-02-16T01:08:18.839Z,76.40
2018-02-16T01:10:45.794Z,76.60
2018-02-16T01:13:12.671Z,76.60
2018-02-16T01:15:39.718Z,77.00
2018-02-16T01:18:06.662Z,76.80
2018-02-16T01:20:34.426Z,77.50
2018-02-16T01:23:01.395Z,76.60
2018-02-16T01:25:29.158Z,76.90
2018-02-16T01:27:55.983Z,76.90
2018-02-16T01:30:22.991Z,77.00
2018-02-16T01:32:49.989Z,76.90
2018-02-16T01:35:16.995Z,76.90
2018-02-16T01:37:43.886Z,77.40
2018-02-16T01:40:11.622Z,78.30
2018-02-16T01:42:38.606Z,78.20
2018-02-16T01:45:05.639Z,78.20
2018-02-16T01:47:32.526Z,78.50
2018-02-16T01:50:05.429Z,78.10
2018-02-16T01:52:32.301Z,78.00
2018-02-16T01:54:59.426Z,78.20
2018-02-16T01:57:26.473Z,78.30
2018-02-16T01:59:53.514Z,78.70
2018-02-16T02:02:20.461Z,76.70
2018-02-16T02:04:47.311Z,77.30
2018-02-16T02:07:14.329Z,76.90
2018-02-16T02:09:42.082Z,76.90
2018-02-16T02:12:09.027Z,76.80
2018-02-16T02:14:35.996Z,76.30
2018-02-16T02:17:02.998Z,76.30
2018-02-16T02:19:29.909Z,76.70
2018-02-16T02:21:56.762Z,76.80
2018-02-16T02:24:23.830Z,77.00
2018-02-16T02:26:51.570Z,77.10
2018-02-16T02:29:18.570Z,77.00
2018-02-16T02:31:45.472Z,77.10
2018-02-16T02:34:12.501Z,77.00
2018-02-16T02:36:39.418Z,76.90
2018-02-16T02:39:06.387Z,76.40
2018-02-16T02:41:33.367Z,76.50
2018-02-16T02:44:01.046Z,76.40
2018-02-16T02:46:28.782Z,76.40
2018-02-16T02:48:55.654Z,76.30
2018-02-16T02:51:23.410Z,76.40
2018-02-16T02:53:50.406Z,76.40
2018-02-16T02:56:17.273Z,76.70
2018-02-16T02:58:45.003Z,76.70
2018-02-16T03:01:12.142Z,76.70
2018-02-16T03:03:39.967Z,77.00
2018-02-16T03:06:07.656Z,76.60
2018-02-16T03:08:34.533Z,76.60
2018-02-16T03:11:02.278Z,75.60
2018-02-16T03:13:29.226Z,75.50
2018-02-16T03:15:56.076Z,75.80
2018-02-16T03:18:23.036Z,76.20
2018-02-16T03:20:50.059Z,77.20
2018-02-16T03:23:17.807Z,76.70
2018-02-16T03:25:44.822Z,77.50
2018-02-16T03:28:11.766Z,77.90
2018-02-16T03:30:38.802Z,77.90
2018-02-16T03:33:06.413Z,77.80
2018-02-16T03:35:33.479Z,77.70
2018-02-16T03:38:00.779Z,78.20
2018-02-16T03:40:27.598Z,78.10
2018-02-16T03:42:54.449Z,78.40
2018-02-16T03:45:21.405Z,78.50
2018-02-16T03:47:48.246Z,78.40
2018-02-16T03:50:15.810Z,78.60
2018-02-16T03:52:42.638Z,78.60
2018-02-16T03:55:09.502Z,78.40
2018-02-16T03:57:36.342Z,77.90
2018-02-16T04:00:03.165Z,78.00
2018-02-16T04:02:29.998Z,78.10
2018-02-16T04:04:56.842Z,78.40
2018-02-16T04:07:23.666Z,79.00
2018-02-16T04:09:50.534Z,79.70
2018-02-16T04:12:17.350Z,79.50
2018-02-16T04:14:44.217Z,79.20
2018-02-16T04:17:11.229Z,79.20
2018-02-16T04:19:38.037Z,78.80
2018-02-16T04:22:04.946Z,78.40
2018-02-16T04:24:32.645Z,78.40
2018-02-16T04:26:59.481Z,78.40
2018-02-16T04:29:27.058Z,79.10
2018-02-16T04:31:54.668Z,79.10
2018-02-16T04:34:21.530Z,79.00
2018-02-16T04:36:48.338Z,78.80
2018-02-16T04:39:15.198Z,78.60
2018-02-16T04:41:42.039Z,78.60
2018-02-16T04:44:08.895Z,78.50
2018-02-16T04:46:35.736Z,78.40
2018-02-16T04:49:02.569Z,78.50
2018-02-16T04:51:29.385Z,79.50
2018-02-16T04:53:56.262Z,79.90
2018-02-16T04:56:23.110Z,80.90
2018-02-16T04:58:49.934Z,80.30
2018-02-16T05:01:17.504Z,80.40
2018-02-16T05:03:45.482Z,79.50
2018-02-16T05:06:12.294Z,79.30
2018-02-16T05:08:39.158Z,79.30
2018-02-16T05:11:06.132Z,79.80
2018-02-16T05:13:33.054Z,80.20
2018-02-16T05:15:59.862Z,80.50
2018-02-16T05:18:26.684Z,80.60
2018-02-16T05:20:54.249Z,81.00
2018-02-16T05:23:21.278Z,81.00
2018-02-16T05:25:48.265Z,81.10
2018-02-16T05:28:15.282Z,81.20
2018-02-16T05:30:42.323Z,81.40
2018-02-16T05:33:09.198Z,81.30
2018-02-16T05:35:37.130Z,80.60
2018-02-16T05:38:04.716Z,81.00
2018-02-16T05:40:31.546Z,81.00
2018-02-16T05:42:58.601Z,81.10
2018-02-16T05:45:25.586Z,80.80
2018-02-16T05:47:52.470Z,80.20
2018-02-16T05:50:20.073Z,80.50
2018-02-16T05:52:47.070Z,80.50
2018-02-16T05:55:14.261Z,80.30
2018-02-16T05:57:41.388Z,81.20
2018-02-16T06:00:08.382Z,81.40
2018-02-16T06:02:36.130Z,81.50
2018-02-16T06:05:03.866Z,81.40
2018-02-16T06:07:30.837Z,81.30
2018-02-16T06:09:57.653Z,81.10
2018-02-16T06:12:25.341Z,81.50
2018-02-16T06:14:52.426Z,81.50
2018-02-16T06:17:19.230Z,81.10
2018-02-16T06:19:46.298Z,80.60
2018-02-16T06:22:13.214Z,80.20
2018-02-16T06:24:40.101Z,80.00
2018-02-16T06:27:07.875Z,80.40
2018-02-16T06:29:34.809Z,79.60
2018-02-16T06:32:01.641Z,80.10
2018-02-16T06:34:28.799Z,79.80
2018-02-16T06:36:55.758Z,79.60
2018-02-16T06:39:22.882Z,80.40
2018-02-16T06:41:49.951Z,80.50
2018-02-16T06:44:17.734Z,80.00
2018-02-16T06:46:44.794Z,79.80
2018-02-16T06:49:11.654Z,79.80
2018-02-16T06:51:38.754Z,79.50
2018-02-16T06:54:05.933Z,79.20
2018-02-16T06:56:33.620Z,78.30
2018-02-16T06:59:00.537Z,78.30
2018-02-16T07:01:27.591Z,77.90
2018-02-16T07:03:54.840Z,77.70
2018-02-16T07:06:21.812Z,77.50
2018-02-16T07:08:48.987Z,77.20
2018-02-16T07:11:16.141Z,77.20
2018-02-16T07:13:43.156Z,77.20
2018-02-16T07:16:10.046Z,76.70
2018-02-16T07:18:38.007Z,79.30
2018-02-16T07:21:05.019Z,78.10
2018-02-16T07:23:32.066Z,77.90
2018-02-16T07:25:59.170Z,77.30
2018-02-16T07:28:26.419Z,77.60
2018-02-16T07:30:53.570Z,78.00
2018-02-16T07:33:20.658Z,77.00
2018-02-16T07:35:47.620Z,77.90
2018-02-16T07:38:14.586Z,77.00
2018-02-16T07:40:41.695Z,76.60
2018-02-16T07:43:08.644Z,78.20
2018-02-16T07:45:35.814Z,77.90
2018-02-16T07:48:02.941Z,78.40
2018-02-16T07:50:32.112Z,77.20
2018-02-16T07:52:59.178Z,78.00
2018-02-16T07:55:26.348Z,77.60
2018-02-16T07:57:53.347Z,76.80
2018-02-16T08:00:20.385Z,76.60
2018-02-16T08:02:47.573Z,76.10
2018-02-16T08:05:14.678Z,78.40
2018-02-16T08:07:41.917Z,78.10
2018-02-16T08:10:09.028Z,77.30
2018-02-16T08:12:36.096Z,76.40
2018-02-16T08:15:03.231Z,74.90
2018-02-16T08:17:31.015Z,74.90
2018-02-16T08:19:58.054Z,74.90
2018-02-16T08:22:25.044Z,74.30
2018-02-16T08:24:52.074Z,74.10
2018-02-16T08:27:19.784Z,74.90
2018-02-16T08:29:46.666Z,74.80
2018-02-16T08:32:13.676Z,74.70
2018-02-16T08:34:40.768Z,73.60
2018-02-16T08:37:07.762Z,74.00
2018-02-16T08:39:34.707Z,73.20
2018-02-16T08:42:01.610Z,72.70
2018-02-16T08:44:28.516Z,73.00
2018-02-16T08:46:55.426Z,73.10
2018-02-16T08:49:22.319Z,72.70
2018-02-16T08:51:49.966Z,71.70
2018-02-16T08:54:16.960Z,71.60
2018-02-16T08:56:43.897Z,71.70
2018-02-16T08:59:10.854Z,73.00
2018-02-16T09:01:37.881Z,73.00
2018-02-16T09:04:05.962Z,73.10
2018-02-16T09:06:32.943Z,73.10
2018-02-16T09:08:59.856Z,71.70
2018-02-16T09:11:27.741Z,70.70
2018-02-16T09:13:55.113Z,70.70
2018-02-16T09:16:22.194Z,72.20
2018-02-16T09:18:49.294Z,71.80
2018-02-16T09:21:16.469Z,71.10
2018-02-16T09:23:43.467Z,72.00
2018-02-16T09:26:10.359Z,70.60
2018-02-16T09:28:37.318Z,69.70
2018-02-16T09:31:04.222Z,70.00
2018-02-16T09:33:31.930Z,69.30
2018-02-16T09:36:00.686Z,69.30
2018-02-16T09:38:27.674Z,69.50
2018-02-16T09:40:54.619Z,70.50
2018-02-16T09:43:21.602Z,69.70
2018-02-16T09:45:49.521Z,67.80
2018-02-16T09:48:17.169Z,66.40
2018-02-16T09:50:44.239Z,66.30
2018-02-16T09:53:11.165Z,66.40
2018-02-16T09:55:38.324Z,66.60
2018-02-16T09:58:05.542Z,65.80
2018-02-16T10:00:32.804Z,67.40
2018-02-16T10:02:59.911Z,65.40
2018-02-16T10:05:26.877Z,63.60
2018-02-16T10:07:54.529Z,65.00
2018-02-16T10:10:21.413Z,65.00
2018-02-16T10:12:49.163Z,61.50
2018-02-16T10:15:16.898Z,60.30
2018-02-16T10:17:43.799Z,60.30
2018-02-16T10:20:10.677Z,60.20
2018-02-16T10:22:37.588Z,61.00
2018-02-16T10:25:04.469Z,58.40
2018-02-16T10:27:31.371Z,58.10
2018-02-16T10:29:58.281Z,56.90
2018-02-16T10:32:25.910Z,55.30
2018-02-16T10:34:52.844Z,55.00
2018-02-16T10:37:19.791Z,53.60
2018-02-16T10:39:47.393Z,53.70
2018-02-16T10:42:15.041Z,54.00
2018-02-16T10:44:41.973Z,53.40
2018-02-16T10:47:08.888Z,53.00
2018-02-16T10:49:35.803Z,53.90
2018-02-16T10:52:02.773Z,54.60
2018-02-16T10:54:29.815Z,54.70
2018-02-16T10:56:56.758Z,55.90
2018-02-16T10:59:23.781Z,56.40
2018-02-16T11:01:56.766Z,57.10
2018-02-16T11:04:30.607Z,58.90
2018-02-16T11:07:10.429Z,58.90
2018-02-16T11:09:37.354Z,59.00
2018-02-16T11:12:04.311Z,59.40
2018-02-16T11:14:31.527Z,59.50
2018-02-16T11:16:58.518Z,59.30
2018-02-16T11:19:25.421Z,58.80
2018-02-16T11:21:52.326Z,59.10
2018-02-16T11:24:19.217Z,60.00
2018-02-16T11:26:47.060Z,59.90
2018-02-16T11:29:13.963Z,59.90
2018-02-16T11:31:41.104Z,59.60
2018-02-16T11:34:08.939Z,57.60
2018-02-16T11:36:36.726Z,58.40
2018-02-16T11:39:03.757Z,58.30
2018-02-16T11:41:30.781Z,56.80
2018-02-16T11:43:58.591Z,57.30
2018-02-16T11:46:25.442Z,57.20
2018-02-16T11:48:52.387Z,57.10
2018-02-16T11:51:19.242Z,59.50
2018-02-16T11:53:46.411Z,58.70
2018-02-16T11:56:13.427Z,58.10
2018-02-16T11:58:40.391Z,57.00
2018-02-16T12:01:07.563Z,57.30
2018-02-16T12:03:35.358Z,57.40
2018-02-16T12:06:03.243Z,57.50
2018-02-16T12:08:30.926Z,57.30
2018-02-16T12:10:57.863Z,57.30
2018-02-16T12:13:24.968Z,57.20
2018-02-16T12:15:52.003Z,56.70
2018-02-16T12:18:19.788Z,58.40
2018-02-16T12:20:46.775Z,58.20
2018-02-16T12:23:13.657Z,56.20
2018-02-16T12:25:40.579Z,56.20
2018-02-16T12:28:07.514Z,57.20
2018-02-16T12:30:34.430Z,57.70
2018-02-16T12:33:01.301Z,56.70
2018-02-16T12:35:28.308Z,56.00
2018-02-16T12:37:55.436Z,56.00
2018-02-16T12:40:22.369Z,57.80
2018-02-16T12:42:49.354Z,56.90
2018-02-16T12:45:16.286Z,57.20
2018-02-16T12:47:43.186Z,56.60
2018-02-16T12:50:10.123Z,54.60
2018-02-16T12:52:37.051Z,54.60
2018-02-16T12:55:03.937Z,55.40
2018-02-16T12:57:30.822Z,54.50
2018-02-16T12:59:57.771Z,53.10
2018-02-16T13:02:24.782Z,52.50
2018-02-16T13:04:52.739Z,52.60
2018-02-16T13:07:19.613Z,52.30
2018-02-16T13:09:46.590Z,52.20
2018-02-16T13:12:13.621Z,52.70
2018-02-16T13:14:41.759Z,53.30
2018-02-16T13:17:09.598Z,53.80
2018-02-16T13:19:36.497Z,54.30
2018-02-16T13:22:03.411Z,55.40
2018-02-16T13:24:30.318Z,54.40
2018-02-16T13:26:57.126Z,54.60
2018-02-16T13:29:23.985Z,53.70
2018-02-16T13:31:50.829Z,52.70
2018-02-16T13:34:17.735Z,52.00
2018-02-16T13:36:44.657Z,51.00
2018-02-16T13:39:11.478Z,51.30
2018-02-16T13:41:38.301Z,50.80
2018-02-16T13:44:05.261Z,49.80
2018-02-16T13:46:32.090Z,49.90
2018-02-16T13:48:59.645Z,50.80
2018-02-16T13:51:27.219Z,49.10
2018-02-16T13:53:54.864Z,48.50
2018-02-16T13:56:21.864Z,48.50
2018-02-16T13:58:48.837Z,49.30
2018-02-16T14:01:15.846Z,50.20
2018-02-16T14:03:42.833Z,51.50
2018-02-16T14:06:09.684Z,52.00
2018-02-16T14:08:36.747Z,52.80
2018-02-16T14:11:03.651Z,53.70
2018-02-16T14:13:30.679Z,54.40
2018-02-16T14:15:57.559Z,55.00
2018-02-16T14:18:25.126Z,53.80
2018-02-16T14:20:53.305Z,54.40
2018-02-16T14:23:20.138Z,54.40
2018-02-16T14:25:47.080Z,55.00
2018-02-16T14:28:13.905Z,55.40
2018-02-16T14:30:40.753Z,55.20
2018-02-16T14:33:07.622Z,55.60
2018-02-16T14:35:34.530Z,56.10
2018-02-16T14:38:01.386Z,56.00
2018-02-16T14:40:28.225Z,56.00
2018-02-16T14:42:55.054Z,55.80
2018-02-16T14:45:21.933Z,55.80
2018-02-16T14:47:48.837Z,55.40
2018-02-16T14:50:15.689Z,55.40
2018-02-16T14:52:42.583Z,55.90
2018-02-16T14:55:10.205Z,57.80
2018-02-16T14:57:37.089Z,57.70
2018-02-16T15:00:04.657Z,57.40
2018-02-16T15:02:32.367Z,58.10
2018-02-16T15:04:59.343Z,58.10
2018-02-16T15:07:26.193Z,58.80
2018-02-16T15:09:53.866Z,59.30
2018-02-16T15:12:20.878Z,59.20
2018-02-16T15:14:48.058Z,59.20
2018-02-16T15:17:14.966Z,59.10
2018-02-16T15:19:41.808Z,59.20
2018-02-16T15:22:08.639Z,59.00
2018-02-16T15:24:35.630Z,59.50
2018-02-16T15:27:02.607Z,59.20
2018-02-16T15:29:29.486Z,59.60
2018-02-16T15:31:56.544Z,60.80
2018-02-16T15:34:23.582Z,60.30
2018-02-16T15:36:51.294Z,60.80
2018-02-16T15:39:18.223Z,60.70
2018-02-16T15:41:45.186Z,61.10
2018-02-16T15:44:12.122Z,61.90
2018-02-16T15:46:38.982Z,61.80
2018-02-16T15:49:05.800Z,63.30
2018-02-16T15:51:33.404Z,64.50
2018-02-16T15:54:00.280Z,64.50
2018-02-16T15:56:27.118Z,64.30
2018-02-16T15:58:53.950Z,64.30
2018-02-16T16:01:20.753Z,63.60
2018-02-16T16:03:47.756Z,64.00
2018-02-16T16:06:14.773Z,64.40
2018-02-16T16:08:41.695Z,64.80
2018-02-16T16:11:08.509Z,65.20
2018-02-16T16:13:35.465Z,65.40
2018-02-16T16:16:02.295Z,65.20
2018-02-16T16:18:29.101Z,67.00
2018-02-16T16:20:55.967Z,68.70
2018-02-16T16:23:22.812Z,69.40
2018-02-16T16:25:49.738Z,69.20
2018-02-16T16:28:16.625Z,69.80
2018-02-16T16:30:43.429Z,70.80
2018-02-16T16:33:10.246Z,70.60
2018-02-16T16:35:37.138Z,70.90
2018-02-16T16:38:04.719Z,73.30
2018-02-16T16:40:31.566Z,72.40
2018-02-16T16:42:58.417Z,73.10
2018-02-16T16:45:25.334Z,72.80
2018-02-16T16:47:52.899Z,73.40
2018-02-16T16:50:20.579Z,74.30
2018-02-16T16:52:48.445Z,74.20
2018-02-16T16:55:15.355Z,73.60
2018-02-16T16:57:43.138Z,74.00
2018-02-16T17:00:10.066Z,74.00
2018-02-16T17:02:37.652Z,75.10
2018-02-16T17:05:04.790Z,75.10
2018-02-16T17:07:31.674Z,76.00
2018-02-16T17:13:03.115Z,74.70
2018-02-16T17:15:34.550Z,75.10
2018-02-16T17:18:11.174Z,75.70
2018-02-16T17:23:35.042Z,76.30
2018-02-16T17:26:02.057Z,76.10
2018-02-16T17:28:29.752Z,75.80
2018-02-16T17:30:56.815Z,75.70
2018-02-16T17:33:27.198Z,76.70
2018-02-16T17:35:55.495Z,76.70
2018-02-16T17:38:23.182Z,76.30
2018-02-16T17:40:52.894Z,76.80
2018-02-16T17:43:20.769Z,77.20
2018-02-16T17:45:47.889Z,77.00
2018-02-16T17:48:14.852Z,77.20
2018-02-16T17:50:42.973Z,77.10
2018-02-16T17:53:10.007Z,77.20
2018-02-16T17:55:37.100Z,77.30
2018-02-16T17:58:04.325Z,77.00
2018-02-16T18:00:31.210Z,77.50
2018-02-16T18:02:58.242Z,76.60
2018-02-16T18:05:25.426Z,77.00
2018-02-16T18:07:52.620Z,77.30
2018-02-16T18:10:20.213Z,77.30
2018-02-16T18:12:47.213Z,77.30
2018-02-16T18:15:14.994Z,76.60
2018-02-16T18:17:43.020Z,77.20
2018-02-16T18:20:10.066Z,77.80
2018-02-16T18:22:38.010Z,77.30
2018-02-16T18:25:04.890Z,77.00
2018-02-16T18:27:31.944Z,77.70
2018-02-16T18:29:59.731Z,78.10
2018-02-16T18:32:28.139Z,77.30
2018-02-16T18:34:55.947Z,77.60
2018-02-16T18:37:23.059Z,77.60
2018-02-16T18:39:50.218Z,77.90
2018-02-16T18:42:17.197Z,78.00
2018-02-16T18:44:44.411Z,78.10
2018-02-16T18:47:11.388Z,77.90
2018-02-16T18:49:39.311Z,78.50
2018-02-16T18:52:06.632Z,78.50
2018-02-16T18:54:34.652Z,77.70
2018-02-16T18:57:02.097Z,77.80
2018-02-16T18:59:29.142Z,77.90
2018-02-16T19:01:56.111Z,77.80
2018-02-16T19:04:23.159Z,78.20
2018-02-16T19:06:50.111Z,78.20
2018-02-16T19:09:18.118Z,78.10
2018-02-16T19:11:45.130Z,77.50
2018-02-16T19:14:13.674Z,77.50
2018-02-16T19:16:40.734Z,78.30
2018-02-16T19:19:07.791Z,78.60
2018-02-16T19:21:34.884Z,78.40
2018-02-16T19:24:01.847Z,77.90
2018-02-16T19:26:28.892Z,78.40
2018-02-16T19:28:55.830Z,78.10
2018-02-16T19:31:22.695Z,78.50
2018-02-16T19:33:49.861Z,78.40
2018-02-16T19:36:17.627Z,78.60
2018-02-16T19:38:44.595Z,78.80
2018-02-16T19:41:11.559Z,78.70
2018-02-16T19:43:38.437Z,78.60
2018-02-16T19:46:06.002Z,78.20
2018-02-16T19:48:32.786Z,78.10
2018-02-16T19:50:59.634Z,78.40
2018-02-16T19:53:27.255Z,77.90
2018-02-16T19:55:54.810Z,77.20
2018-02-16T19:58:22.385Z,78.40
2018-02-16T20:00:49.937Z,78.20
2018-02-16T20:03:17.483Z,78.70
2018-02-16T20:05:45.152Z,78.90
2018-02-16T20:08:12.000Z,78.60
2018-02-16T20:10:39.586Z,78.80
2018-02-16T20:13:06.430Z,78.80
2018-02-16T20:15:33.473Z,79.00
2018-02-16T20:18:01.155Z,80.10
2018-02-16T20:20:28.749Z,80.50
2018-02-16T20:22:56.305Z,80.60
2018-02-16T20:25:23.962Z,80.30
2018-02-16T20:27:50.809Z,80.20
2018-02-16T20:30:17.622Z,80.70
2018-02-16T20:32:44.438Z,81.70
2018-02-16T20:35:11.333Z,80.40
2018-02-16T20:37:38.125Z,80.80
2018-02-16T20:40:04.994Z,80.70
2018-02-16T20:42:31.850Z,80.90
2018-02-16T20:44:58.775Z,81.20
2018-02-16T20:47:26.198Z,81.00
2018-02-16T20:49:53.029Z,81.20
2018-02-16T20:52:20.609Z,81.00
2018-02-16T20:54:47.576Z,81.00
2018-02-16T20:57:14.448Z,80.50
2018-02-16T20:59:41.333Z,81.10
2018-02-16T21:02:08.190Z,81.10
2018-02-16T21:04:35.057Z,81.00
2018-02-16T21:07:02.877Z,80.60
2018-02-16T21:09:29.816Z,80.50
2018-02-16T21:11:56.777Z,80.40
2018-02-16T21:14:23.691Z,79.70
2018-02-16T21:16:50.787Z,79.50
2018-02-16T21:19:18.410Z,80.70
2018-02-16T21:21:45.997Z,80.50
2018-02-16T21:24:13.582Z,80.40
2018-02-16T21:26:40.410Z,80.40
2018-02-16T21:29:07.249Z,80.80
2018-02-16T21:31:34.168Z,81.00
2018-02-16T21:34:01.065Z,80.40
2018-02-16T21:36:27.958Z,81.00
2018-02-16T21:38:55.540Z,81.20
2018-02-16T21:41:22.333Z,81.20
2018-02-16T21:43:50.037Z,81.90
2018-02-16T21:46:16.872Z,81.00
2018-02-16T21:48:43.710Z,81.40
2018-02-16T21:51:11.290Z,81.40
2018-02-16T21:53:38.214Z,81.30
2018-02-16T21:56:05.767Z,81.50
2018-02-16T21:58:33.398Z,81.70
2018-02-16T22:01:00.213Z,81.60
2018-02-16T22:03:27.019Z,81.90
2018-02-16T22:05:54.598Z,82.60
2018-02-16T22:08:21.647Z,82.60
2018-02-16T22:10:48.523Z,83.00
2018-02-16T22:13:16.098Z,82.90
2018-02-16T22:15:43.049Z,82.70
2018-02-16T22:18:10.646Z,82.60
2018-02-16T22:20:37.657Z,82.60
2018-02-16T22:23:05.012Z,82.40
2018-02-16T22:25:31.958Z,82.20
2018-02-16T22:27:59.526Z,81.30
2018-02-16T22:30:27.116Z,82.40
2018-02-16T22:32:53.952Z,81.60
2018-02-16T22:35:21.556Z,82.00
2018-02-16T22:37:48.389Z,81.90
2018-02-16T22:40:15.206Z,81.70
2018-02-16T22:42:42.043Z,81.60
2018-02-16T22:45:08.939Z,82.50
2018-02-16T22:47:35.750Z,83.00
2018-02-16T22:50:02.606Z,82.30
2018-02-16T22:52:29.462Z,82.40
2018-02-16T22:54:56.411Z,82.50
2018-02-16T22:57:23.226Z,82.50
2018-02-16T22:59:50.069Z,82.60
2018-02-16T23:02:16.929Z,81.70
2018-02-16T23:04:43.761Z,81.50
2018-02-16T23:07:10.608Z,80.90
2018-02-16T23:09:37.405Z,82.10
2018-02-16T23:12:04.253Z,81.30
2018-02-16T23:14:31.147Z,80.70
2018-02-16T23:16:57.966Z,80.20
2018-02-16T23:19:24.829Z,80.20
2018-02-16T23:21:51.648Z,82.40
2018-02-16T23:24:18.470Z,82.30
2018-02-16T23:26:45.294Z,82.20
2018-02-16T23:29:12.851Z,82.60
2018-02-16T23:31:40.421Z,83.30
2018-02-16T23:34:08.014Z,83.30
2018-02-16T23:36:34.845Z,83.30
2018-02-16T23:39:01.722Z,83.90
2018-02-16T23:41:28.573Z,83.80
2018-02-16T23:43:55.443Z,83.20
2018-02-16T23:46:22.295Z,83.10
2018-02-16T23:48:49.114Z,83.40
2018-02-16T23:51:15.976Z,83.20
2018-02-16T23:53:42.838Z,82.80
2018-02-16T23:56:09.838Z,83.40
2018-02-16T23:58:37.483Z,82.90
